createdAt,value
2022-11-29T00:01:40.044Z,39.47
2022-11-29T00:04:07.887Z,38.85
2022-11-29T00:06:36.303Z,40.50
2022-11-29T00:09:06.589Z,38.17
2022-11-29T00:11:55.060Z,40.03
2022-11-29T00:14:24.628Z,47.25
2022-11-29T00:17:02.024Z,37.05
2022-11-29T00:19:34.969Z,41.97
2022-11-29T00:22:03.803Z,38.25
2022-11-29T00:24:32.507Z,41.05
2022-11-29T00:27:02.265Z,41.03
2022-11-29T00:29:30.391Z,32.90
2022-11-29T00:31:59.088Z,40.00
2022-11-29T00:34:27.355Z,37.00
2022-11-29T00:36:55.475Z,33.17
2022-11-29T00:39:23.246Z,36.42
2022-11-29T00:41:50.789Z,34.08
2022-11-29T00:44:20.570Z,32.42
2022-11-29T00:46:49.174Z,31.75
2022-11-29T00:49:17.049Z,33.40
2022-11-29T00:51:44.932Z,36.25
2022-11-29T00:54:12.728Z,37.60
2022-11-29T00:56:40.333Z,33.25
2022-11-29T00:59:07.973Z,37.55
2022-11-29T01:01:35.638Z,27.65
2022-11-29T01:04:03.871Z,37.95
2022-11-29T01:06:31.441Z,25.77
2022-11-29T01:08:59.868Z,35.50
2022-11-29T01:11:28.159Z,35.40
2022-11-29T01:13:58.783Z,34.78
2022-11-29T01:16:27.780Z,26.33
2022-11-29T01:18:55.821Z,28.25
2022-11-29T01:21:24.840Z,29.27
2022-11-29T01:23:54.263Z,23.17
2022-11-29T01:26:26.208Z,25.35
2022-11-29T01:28:55.778Z,24.08
2022-11-29T01:31:27.052Z,25.38
2022-11-29T01:33:57.522Z,31.63
2022-11-29T01:36:26.998Z,17.48
2022-11-29T01:38:54.950Z,17.45
2022-11-29T01:41:28.295Z,20.85
2022-11-29T01:44:16.119Z,19.48
2022-11-29T01:46:46.004Z,19.92
2022-11-29T01:49:21.396Z,19.30
2022-11-29T01:51:53.437Z,24.10
2022-11-29T01:54:22.673Z,17.23
2022-11-29T01:56:52.664Z,18.58
2022-11-29T01:59:23.595Z,21.45
2022-11-29T02:01:52.642Z,16.50
2022-11-29T02:04:20.588Z,18.38
2022-11-29T02:06:48.450Z,15.43
2022-11-29T02:09:24.253Z,16.55
2022-11-29T02:12:16.543Z,19.98
2022-11-29T02:14:52.986Z,15.40
2022-11-29T02:17:30.824Z,22.25
2022-11-29T02:20:07.497Z,21.73
2022-11-29T02:22:45.922Z,28.30
2022-11-29T02:25:28.032Z,25.83
2022-11-29T02:28:20.442Z,18.92
2022-11-29T02:31:25.904Z,28.30
2022-11-29T02:34:18.605Z,20.70
2022-11-29T02:36:55.847Z,27.67
2022-11-29T02:39:57.269Z,22.70
2022-11-29T02:43:04.227Z,28.73
2022-11-29T02:45:37.608Z,18.30
2022-11-29T02:48:41.672Z,25.30
2022-11-29T02:51:21.404Z,22.77
2022-11-29T02:53:58.171Z,22.05
2022-11-29T02:56:34.957Z,24.83
2022-11-29T02:59:20.875Z,22.30
2022-11-29T03:02:09.811Z,23.40
2022-11-29T03:05:03.783Z,23.55
2022-11-29T03:08:05.817Z,25.10
2022-11-29T03:10:46.597Z,24.13
2022-11-29T03:13:28.138Z,24.75
2022-11-29T03:16:06.408Z,23.05
2022-11-29T03:18:50.932Z,25.10
2022-11-29T03:21:47.050Z,28.83
2022-11-29T03:24:37.558Z,22.90
2022-11-29T03:27:12.478Z,32.55
2022-11-29T03:29:49.602Z,26.83
2022-11-29T03:32:48.612Z,23.98
2022-11-29T03:35:22.485Z,28.20
2022-11-29T03:40:29.600Z,28.52
2022-11-29T03:43:04.349Z,29.40
2022-11-29T03:45:39.403Z,26.58
2022-11-29T03:48:17.597Z,27.60
2022-11-29T03:50:54.947Z,25.58
2022-11-29T03:53:47.494Z,26.98
2022-11-29T03:56:31.329Z,25.48
2022-11-29T03:59:27.276Z,24.90
2022-11-29T04:02:01.209Z,30.70
2022-11-29T04:04:32.052Z,24.42
2022-11-29T04:07:12.223Z,20.50
2022-11-29T04:09:49.517Z,35.28
2022-11-29T04:12:32.716Z,28.77
2022-11-29T04:15:27.966Z,23.07
2022-11-29T04:18:14.262Z,27.67
2022-11-29T04:21:13.142Z,23.98
2022-11-29T04:24:03.197Z,30.08
2022-11-29T04:26:52.401Z,18.75
2022-11-29T04:29:35.122Z,26.63
2022-11-29T04:32:22.716Z,24.60
2022-11-29T04:35:32.499Z,22.40
2022-11-29T04:38:06.279Z,22.55
2022-11-29T04:40:56.060Z,22.83
2022-11-29T04:44:18.755Z,24.15
2022-11-29T04:47:19.189Z,20.13
2022-11-29T04:50:10.144Z,23.25
2022-11-29T04:52:52.459Z,23.77
2022-11-29T04:55:29.417Z,23.08
2022-11-29T04:58:13.340Z,17.13
2022-11-29T05:00:54.050Z,18.70
2022-11-29T05:03:34.361Z,20.77
2022-11-29T05:06:17.145Z,20.67
2022-11-29T05:08:58.669Z,17.17
2022-11-29T05:11:43.455Z,22.73
2022-11-29T05:14:20.596Z,21.20
2022-11-29T05:17:01.420Z,21.48
2022-11-29T05:20:01.082Z,20.92
2022-11-29T05:22:44.696Z,23.17
2022-11-29T05:25:29.894Z,22.90
2022-11-29T05:28:29.669Z,22.02
2022-11-29T05:31:20.829Z,24.35
2022-11-29T05:34:08.756Z,21.88
2022-11-29T05:37:02.090Z,18.63
2022-11-29T05:39:39.002Z,18.77
2022-11-29T05:42:34.808Z,15.05
2022-11-29T05:45:17.824Z,15.23
2022-11-29T05:47:51.519Z,17.90
2022-11-29T05:53:29.548Z,16.63
2022-11-29T05:56:13.589Z,18.20
2022-11-29T05:58:59.648Z,17.98
2022-11-29T06:02:06.541Z,20.85
2022-11-29T06:04:46.490Z,19.17
2022-11-29T06:07:14.809Z,19.90
2022-11-29T06:10:02.170Z,17.45
2022-11-29T06:12:35.846Z,28.45
2022-11-29T06:15:32.933Z,18.88
2022-11-29T06:18:19.646Z,20.60
2022-11-29T06:20:52.954Z,18.58
2022-11-29T06:23:48.608Z,25.13
2022-11-29T06:26:34.306Z,26.65
2022-11-29T06:29:23.905Z,19.65
2022-11-29T06:32:03.379Z,19.13
2022-11-29T06:34:56.785Z,22.45
2022-11-29T06:37:45.147Z,22.90
2022-11-29T06:40:16.079Z,16.88
2022-11-29T06:42:45.032Z,21.58
2022-11-29T06:45:14.438Z,17.75
2022-11-29T06:48:14.689Z,18.75
2022-11-29T06:50:58.734Z,17.90
2022-11-29T06:56:49.568Z,15.32
2022-11-29T06:59:23.101Z,19.52
2022-11-29T07:02:47.279Z,13.98
2022-11-29T07:05:27.802Z,18.33
2022-11-29T07:07:58.955Z,16.23
2022-11-29T07:10:27.548Z,17.63
2022-11-29T07:12:55.483Z,17.25
2022-11-29T07:15:23.862Z,18.92
2022-11-29T07:18:09.565Z,16.38
2022-11-29T07:20:51.873Z,16.77
2022-11-29T07:23:51.201Z,17.70
2022-11-29T07:26:33.581Z,16.95
2022-11-29T07:29:32.457Z,16.05
2022-11-29T07:32:26.536Z,15.52
2022-11-29T07:35:16.159Z,13.77
2022-11-29T07:38:03.494Z,14.68
2022-11-29T07:40:40.423Z,17.35
2022-11-29T07:43:21.934Z,13.48
2022-11-29T07:45:51.890Z,13.73
2022-11-29T07:48:19.703Z,16.88
2022-11-29T07:50:47.409Z,18.95
2022-11-29T07:53:20.217Z,17.15
2022-11-29T07:55:51.246Z,16.70
2022-11-29T07:58:21.133Z,18.15
2022-11-29T08:00:49.738Z,18.90
2022-11-29T08:03:17.464Z,21.42
2022-11-29T08:05:47.692Z,16.65
2022-11-29T08:08:15.416Z,21.52
2022-11-29T08:10:43.303Z,15.10
2022-11-29T08:13:11.017Z,19.55
2022-11-29T08:15:45.626Z,89.45
2022-11-29T08:18:14.525Z,54.88
2022-11-29T08:20:43.215Z,38.63
2022-11-29T08:23:13.536Z,25.10
2022-11-29T08:25:41.998Z,20.48
2022-11-29T08:28:10.117Z,16.95
2022-11-29T08:30:38.328Z,19.75
2022-11-29T08:33:07.194Z,24.00
2022-11-29T08:35:35.014Z,15.80
2022-11-29T08:38:03.912Z,20.00
2022-11-29T08:40:31.617Z,19.48
2022-11-29T08:42:59.325Z,15.65
2022-11-29T08:45:26.973Z,28.10
2022-11-29T08:47:54.695Z,22.00
2022-11-29T08:50:22.584Z,23.42
2022-11-29T08:53:09.689Z,25.90
2022-11-29T08:55:40.733Z,18.90
2022-11-29T08:58:11.749Z,22.35
2022-11-29T09:00:40.975Z,25.88
2022-11-29T09:03:28.001Z,19.70
2022-11-29T09:05:57.631Z,14.45
2022-11-29T09:08:25.342Z,18.83
2022-11-29T09:10:53.361Z,19.10
2022-11-29T09:13:20.953Z,15.43
2022-11-29T09:15:48.651Z,15.00
2022-11-29T09:18:16.764Z,21.63
2022-11-29T09:20:45.493Z,17.23
2022-11-29T09:23:13.446Z,17.52
2022-11-29T09:25:42.343Z,17.50
2022-11-29T09:28:11.428Z,20.58
2022-11-29T09:30:39.049Z,17.17
2022-11-29T09:33:07.075Z,21.80
2022-11-29T09:35:35.556Z,14.82
2022-11-29T09:38:03.300Z,24.75
2022-11-29T09:40:55.589Z,20.58
2022-11-29T09:43:45.374Z,20.90
2022-11-29T09:46:43.526Z,17.90
2022-11-29T09:49:45.842Z,16.55
2022-11-29T09:52:41.499Z,16.67
2022-11-29T09:55:55.863Z,17.75
2022-11-29T09:58:28.743Z,17.02
2022-11-29T10:01:05.488Z,16.77
2022-11-29T10:03:39.701Z,14.55
2022-11-29T10:06:28.280Z,17.23
2022-11-29T10:09:01.938Z,22.27
2022-11-29T10:11:39.875Z,16.67
2022-11-29T10:14:50.393Z,17.52
2022-11-29T10:17:38.559Z,14.90
2022-11-29T10:20:11.026Z,14.55
2022-11-29T10:22:45.652Z,20.38
2022-11-29T10:25:23.949Z,19.00
2022-11-29T10:27:52.980Z,14.80
2022-11-29T10:30:21.336Z,23.42
2022-11-29T10:32:56.635Z,15.10
2022-11-29T10:35:24.466Z,14.95
2022-11-29T10:38:28.578Z,16.48
2022-11-29T10:40:47.449Z,12.82
2022-11-29T10:43:15.729Z,13.25
2022-11-29T10:45:50.458Z,12.88
2022-11-29T10:48:21.723Z,18.35
2022-11-29T10:50:51.599Z,18.65
2022-11-29T10:53:30.929Z,24.02
2022-11-29T10:56:14.565Z,21.13
2022-11-29T10:58:54.928Z,14.90
2022-11-29T11:01:23.095Z,15.88
2022-11-29T11:03:55.662Z,13.52
2022-11-29T11:06:42.410Z,15.73
2022-11-29T11:09:19.113Z,14.20
2022-11-29T11:12:01.751Z,15.15
2022-11-29T11:14:32.000Z,16.00
2022-11-29T11:17:26.075Z,17.05
2022-11-29T11:20:02.123Z,16.50
2022-11-29T11:22:32.588Z,19.88
2022-11-29T11:25:04.345Z,17.50
2022-11-29T11:27:35.677Z,20.90
2022-11-29T11:30:05.945Z,19.15
2022-11-29T11:32:33.563Z,22.65
2022-11-29T11:35:02.745Z,16.17
2022-11-29T11:37:32.975Z,18.55
2022-11-29T11:40:20.840Z,21.65
2022-11-29T11:42:48.733Z,18.27
2022-11-29T11:45:16.260Z,23.55
2022-11-29T11:47:55.653Z,26.42
2022-11-29T11:50:42.028Z,19.77
2022-11-29T11:53:23.993Z,29.40
2022-11-29T11:56:04.948Z,20.92
2022-11-29T11:58:37.696Z,22.80
2022-11-29T12:01:08.973Z,17.75
2022-11-29T12:03:52.843Z,22.98
2022-11-29T12:06:50.821Z,21.98
2022-11-29T12:09:49.715Z,23.10
2022-11-29T12:12:39.103Z,22.33
2022-11-29T12:15:32.967Z,20.52
2022-11-29T12:18:16.835Z,29.52
2022-11-29T12:21:17.594Z,20.42
2022-11-29T12:23:49.381Z,18.27
2022-11-29T12:26:55.369Z,20.15
2022-11-29T12:29:16.887Z,18.52
2022-11-29T12:34:44.085Z,18.58
2022-11-29T12:37:24.596Z,20.02
2022-11-29T12:40:02.952Z,18.10
2022-11-29T12:42:50.799Z,19.88
2022-11-29T12:45:42.883Z,18.25
2022-11-29T12:48:13.146Z,20.42
2022-11-29T12:50:47.360Z,20.30
2022-11-29T12:53:42.556Z,19.20
2022-11-29T12:56:24.781Z,18.85
2022-11-29T12:59:01.451Z,18.45
2022-11-29T13:02:11.955Z,19.88
2022-11-29T13:04:56.503Z,21.77
2022-11-29T13:07:36.034Z,18.83
2022-11-29T13:10:17.718Z,18.08
2022-11-29T13:12:55.989Z,15.75
2022-11-29T13:15:43.630Z,20.02
2022-11-29T13:18:25.805Z,13.00
2022-11-29T13:21:01.826Z,16.08
2022-11-29T13:24:12.189Z,20.80
2022-11-29T13:26:41.358Z,18.77
2022-11-29T13:29:16.502Z,24.42
2022-11-29T13:31:45.715Z,20.40
2022-11-29T13:34:47.881Z,23.08
2022-11-29T13:37:30.145Z,19.27
2022-11-29T13:40:24.858Z,18.40
2022-11-29T13:43:05.755Z,21.55
2022-11-29T13:45:55.134Z,18.48
2022-11-29T13:48:29.448Z,21.05
2022-11-29T13:50:58.093Z,23.80
2022-11-29T13:53:45.269Z,20.88
2022-11-29T13:56:36.116Z,17.83
2022-11-29T13:59:13.211Z,17.70
2022-11-29T14:01:51.105Z,15.98
2022-11-29T14:04:21.868Z,17.83
2022-11-29T14:06:50.375Z,23.10
2022-11-29T14:09:26.090Z,17.73
2022-11-29T14:11:57.161Z,20.20
2022-11-29T14:14:31.597Z,16.95
2022-11-29T14:17:02.139Z,20.48
2022-11-29T14:19:35.377Z,16.40
2022-11-29T14:22:18.528Z,24.80
2022-11-29T14:25:00.765Z,17.30
2022-11-29T14:27:28.734Z,17.00
2022-11-29T14:29:56.399Z,21.60
2022-11-29T14:32:24.211Z,19.15
2022-11-29T14:35:05.066Z,21.00
2022-11-29T14:37:51.424Z,16.98
2022-11-29T14:40:42.719Z,16.33
2022-11-29T14:43:24.906Z,19.75
2022-11-29T14:46:15.161Z,21.67
2022-11-29T14:49:05.560Z,19.83
2022-11-29T14:51:34.928Z,17.63
2022-11-29T14:54:05.500Z,22.20
2022-11-29T14:56:38.999Z,17.90
2022-11-29T14:59:41.384Z,22.08
2022-11-29T15:02:50.725Z,16.27
2022-11-29T15:05:21.333Z,18.63
2022-11-29T15:08:15.184Z,15.57
2022-11-29T15:10:50.067Z,18.77
2022-11-29T15:13:28.803Z,19.23
2022-11-29T15:16:18.541Z,17.30
2022-11-29T15:19:13.406Z,17.73
2022-11-29T15:22:20.228Z,14.88
2022-11-29T15:24:54.952Z,16.67
2022-11-29T15:27:23.599Z,25.70
2022-11-29T15:29:52.922Z,20.63
2022-11-29T15:32:26.122Z,18.92
2022-11-29T15:34:55.925Z,17.08
2022-11-29T15:37:33.670Z,18.98
2022-11-29T15:40:05.241Z,19.33
2022-11-29T15:42:49.964Z,22.98
2022-11-29T15:45:34.359Z,20.58
2022-11-29T15:48:19.881Z,20.75
2022-11-29T15:50:51.976Z,20.23
2022-11-29T15:53:24.746Z,22.98
2022-11-29T15:55:56.826Z,22.10
2022-11-29T15:58:29.942Z,20.23
2022-11-29T16:01:00.683Z,16.08
2022-11-29T16:03:35.229Z,22.30
2022-11-29T16:06:19.195Z,22.60
2022-11-29T16:08:48.766Z,26.08
2022-11-29T16:11:21.009Z,21.38
2022-11-29T16:14:20.974Z,29.80
2022-11-29T16:16:55.114Z,32.08
2022-11-29T16:19:26.222Z,22.67
2022-11-29T16:22:11.936Z,33.47
2022-11-29T16:24:48.335Z,33.38
2022-11-29T16:27:16.605Z,23.75
2022-11-29T16:29:46.096Z,31.40
2022-11-29T16:32:15.799Z,20.65
2022-11-29T16:34:45.363Z,31.70
2022-11-29T16:37:20.787Z,22.63
2022-11-29T16:39:51.878Z,27.77
2022-11-29T16:42:25.873Z,27.23
2022-11-29T16:44:56.704Z,28.95
2022-11-29T16:47:28.018Z,33.05
2022-11-29T16:50:01.475Z,30.13
2022-11-29T16:52:31.938Z,25.17
2022-11-29T16:55:00.639Z,26.38
2022-11-29T16:57:29.837Z,21.33
2022-11-29T16:59:57.546Z,26.02
2022-11-29T17:02:28.915Z,24.80
2022-11-29T17:04:58.209Z,27.00
2022-11-29T17:07:33.964Z,25.10
2022-11-29T17:10:02.240Z,27.98
2022-11-29T17:12:30.182Z,27.95
2022-11-29T17:14:58.450Z,31.48
2022-11-29T17:17:26.676Z,28.60
2022-11-29T17:19:55.422Z,36.65
2022-11-29T17:22:23.052Z,23.00
2022-11-29T17:24:50.904Z,31.92
2022-11-29T17:27:18.889Z,34.05
2022-11-29T17:29:47.524Z,29.17
2022-11-29T17:32:15.173Z,30.48
2022-11-29T17:34:42.850Z,25.17
2022-11-29T17:37:11.282Z,31.45
2022-11-29T17:39:38.876Z,22.67
2022-11-29T17:42:06.981Z,26.80
2022-11-29T17:44:34.711Z,35.65
2022-11-29T17:47:02.389Z,25.10
2022-11-29T17:49:30.628Z,38.08
2022-11-29T17:51:59.103Z,36.45
2022-11-29T17:54:26.931Z,32.97
2022-11-29T17:56:55.623Z,27.95
2022-11-29T17:59:23.333Z,38.90
2022-11-29T18:01:51.573Z,32.28
2022-11-29T18:04:19.062Z,31.52
2022-11-29T18:06:50.143Z,29.50
2022-11-29T18:09:19.684Z,34.63
2022-11-29T18:11:50.357Z,33.90
2022-11-29T18:14:23.980Z,39.30
2022-11-29T18:16:52.730Z,31.05
2022-11-29T18:19:22.101Z,30.02
2022-11-29T18:21:50.443Z,25.67
2022-11-29T18:24:18.488Z,35.85
2022-11-29T18:26:46.995Z,34.92
2022-11-29T18:29:15.679Z,29.40
2022-11-29T18:31:45.546Z,30.83
2022-11-29T18:34:14.497Z,34.78
2022-11-29T18:36:47.219Z,30.58
2022-11-29T18:39:20.140Z,31.40
2022-11-29T18:41:50.647Z,37.27
2022-11-29T18:44:21.849Z,30.92
2022-11-29T18:46:50.127Z,32.50
2022-11-29T18:49:18.782Z,48.38
2022-11-29T18:51:48.100Z,30.55
2022-11-29T18:54:18.243Z,42.13
2022-11-29T18:56:46.843Z,42.78
2022-11-29T18:59:17.450Z,42.47
2022-11-29T19:01:48.028Z,44.55
2022-11-29T19:04:19.791Z,42.13
2022-11-29T19:06:48.026Z,50.60
2022-11-29T19:09:21.169Z,46.85
2022-11-29T19:11:50.677Z,49.03
2022-11-29T19:14:19.651Z,41.50
2022-11-29T19:16:48.937Z,48.45
2022-11-29T19:19:19.083Z,46.60
2022-11-29T19:21:47.392Z,52.05
2022-11-29T19:24:17.783Z,41.55
2022-11-29T19:26:47.501Z,46.60
2022-11-29T19:29:16.000Z,42.22
2022-11-29T19:31:43.989Z,41.67
2022-11-29T19:34:12.056Z,39.22
2022-11-29T19:36:44.828Z,36.97
2022-11-29T19:39:14.922Z,40.38
2022-11-29T19:41:48.034Z,39.50
2022-11-29T19:44:15.834Z,39.70
2022-11-29T19:46:47.156Z,49.45
2022-11-29T19:49:15.326Z,45.40
2022-11-29T19:51:43.693Z,40.22
2022-11-29T19:54:12.954Z,39.47
2022-11-29T19:56:40.650Z,40.80
2022-11-29T19:59:09.136Z,38.28
2022-11-29T20:01:42.727Z,43.85
2022-11-29T20:06:39.783Z,45.83
2022-11-29T20:09:07.947Z,33.50
2022-11-29T20:11:35.897Z,33.28
2022-11-29T20:14:05.581Z,44.88
2022-11-29T20:16:34.985Z,50.58
2022-11-29T20:19:02.968Z,56.05
2022-11-29T20:21:32.869Z,60.00
2022-11-29T20:24:06.362Z,52.40
2022-11-29T20:26:36.929Z,47.15
2022-11-29T20:29:06.630Z,57.13
2022-11-29T20:31:36.569Z,47.40
2022-11-29T20:34:07.267Z,44.88
2022-11-29T20:36:41.021Z,40.33
2022-11-29T20:42:33.352Z,42.42
2022-11-29T20:47:39.388Z,39.45
2022-11-29T20:50:08.116Z,37.45
2022-11-29T20:52:51.660Z,34.83
2022-11-29T20:55:21.228Z,32.60
2022-11-29T20:57:49.873Z,35.78
2022-11-29T21:00:18.305Z,32.70
2022-11-29T21:02:46.488Z,36.50
2022-11-29T21:05:16.199Z,47.33
2022-11-29T21:07:45.432Z,38.22
2022-11-29T21:10:15.466Z,39.13
2022-11-29T21:12:45.846Z,48.33
2022-11-29T21:15:15.002Z,43.78
2022-11-29T21:17:43.319Z,37.95
2022-11-29T21:20:27.002Z,38.42
2022-11-29T21:23:20.086Z,33.72
2022-11-29T21:25:57.563Z,41.78
2022-11-29T21:28:32.524Z,44.95
2022-11-29T21:31:00.946Z,34.92
2022-11-29T21:33:28.929Z,38.25
2022-11-29T21:35:58.181Z,45.03
2022-11-29T21:38:27.026Z,48.58
2022-11-29T21:40:54.880Z,36.83
2022-11-29T21:43:43.364Z,30.70
2022-11-29T21:46:10.667Z,34.70
2022-11-29T21:48:38.323Z,39.88
2022-11-29T21:51:07.824Z,30.35
2022-11-29T21:53:37.431Z,37.78
2022-11-29T21:56:08.322Z,33.55
2022-11-29T21:58:37.013Z,43.22
2022-11-29T22:01:14.432Z,36.47
2022-11-29T22:03:42.908Z,31.38
2022-11-29T22:06:13.869Z,33.28
2022-11-29T22:08:42.709Z,35.83
2022-11-29T22:11:13.521Z,32.50
2022-11-29T22:14:01.796Z,44.03
2022-11-29T22:16:30.407Z,45.25
2022-11-29T22:18:58.671Z,45.95
2022-11-29T22:21:26.446Z,45.85
2022-11-29T22:23:54.145Z,45.85
2022-11-29T22:26:22.246Z,36.80
2022-11-29T22:28:50.029Z,40.60
2022-11-29T22:31:18.706Z,44.90
2022-11-29T22:33:46.377Z,38.25
2022-11-29T22:36:13.996Z,53.47
2022-11-29T22:38:42.037Z,43.45
2022-11-29T22:41:11.852Z,38.97
2022-11-29T22:43:40.793Z,36.47
2022-11-29T22:46:12.259Z,34.88
2022-11-29T22:48:41.751Z,40.28
2022-11-29T22:51:11.997Z,32.63
2022-11-29T22:53:42.495Z,33.13
2022-11-29T22:56:11.819Z,34.88
2022-11-29T22:58:39.503Z,36.85
2022-11-29T23:01:14.249Z,39.08
2022-11-29T23:03:45.641Z,38.63
2022-11-29T23:06:19.105Z,42.38
2022-11-29T23:08:47.809Z,41.35
2022-11-29T23:11:19.020Z,39.58
2022-11-29T23:13:47.227Z,46.95
2022-11-29T23:16:17.330Z,39.17
2022-11-29T23:18:45.887Z,44.42
2022-11-29T23:21:16.395Z,43.15
2022-11-29T23:23:45.269Z,37.47
2022-11-29T23:26:39.676Z,44.90
2022-11-29T23:29:18.511Z,36.15
2022-11-29T23:31:46.957Z,46.20
2022-11-29T23:34:14.797Z,45.00
2022-11-29T23:36:45.849Z,41.00
2022-11-29T23:39:17.844Z,51.33
2022-11-29T23:41:46.033Z,42.50
2022-11-29T23:44:13.861Z,48.20
2022-11-29T23:46:41.493Z,43.88
2022-11-29T23:49:09.088Z,33.15
2022-11-29T23:51:37.415Z,44.13
2022-11-29T23:54:05.329Z,43.88
2022-11-29T23:56:35.491Z,43.13
2022-11-29T23:59:03.964Z,40.17
